Time;durP1;ratioP1;P1;durP2;ratioP2;P2;SDS_P1;SDS_P2;PMS_P1;PMS_P2;Temp;Humidity;BMP_temperature;BMP_pressure;BME280_temperature;BME280_humidity;BME280_pressure;Samples;Min_cycle;Max_cycle;Signal;HPM_P1;HPM_P2
2021/04/17 00:01:40;;;;;;;6.95;5.67;;;;;;;5.74;62.73;94481.92;1751314;82;21097;-54
2021/04/17 00:04:09;;;;;;;7.35;6.72;;;;;;;5.74;62.60;94481.92;1751412;82;22126;-54
2021/04/17 00:06:37;;;;;;;7.45;6.75;;;;;;;5.78;62.39;94482.64;1751268;82;21128;-55
2021/04/17 00:09:14;;;;;;;7.78;7.00;;;;;;;5.82;62.14;94482.75;1751355;82;21199;-53
2021/04/17 00:11:44;;;;;;;7.30;6.55;;;;;;;5.85;61.37;94486.61;1751402;82;21133;-54
2021/04/17 00:14:19;;;;;;;8.70;7.83;;;;;;;5.84;60.93;94483.70;1751371;82;21084;-57
2021/04/17 00:16:50;;;;;;;6.87;6.17;;;;;;;5.83;60.73;94481.55;1750126;81;22131;-54
2021/04/17 00:19:18;;;;;;;8.33;7.03;;;;;;;5.80;60.43;94478.92;1751396;81;21576;-53
2021/04/17 00:21:47;;;;;;;12.47;9.40;;;;;;;5.80;60.56;94474.83;1751453;82;21147;-55
2021/04/17 00:24:15;;;;;;;7.33;6.62;;;;;;;5.79;60.51;94476.02;1751341;82;21155;-57
2021/04/17 00:26:42;;;;;;;7.33;6.47;;;;;;;5.79;60.46;94474.66;1751315;82;21104;-54
2021/04/17 00:29:10;;;;;;;7.83;7.03;;;;;;;5.80;60.52;94477.56;1751454;82;21365;-54
2021/04/17 00:31:40;;;;;;;8.28;6.80;;;;;;;5.75;60.57;94482.13;1751305;82;21164;-54
2021/04/17 00:34:08;;;;;;;6.62;6.03;;;;;;;5.71;60.87;94471.86;1751359;82;21152;-54
2021/04/17 00:36:36;;;;;;;7.97;7.17;;;;;;;5.68;60.88;94471.34;1751320;82;21175;-54
2021/04/17 00:39:05;;;;;;;7.92;7.12;;;;;;;5.67;60.96;94466.50;1751331;82;21095;-54
2021/04/17 00:41:34;;;;;;;6.72;6.12;;;;;;;5.70;60.97;94470.33;1751402;82;22141;-53
2021/04/17 00:44:03;;;;;;;5.90;5.40;;;;;;;5.72;60.98;94467.94;1751387;82;21537;-54
2021/04/17 00:46:32;;;;;;;6.58;5.97;;;;;;;5.71;60.96;94468.55;1734173;82;21096;-54
2021/04/17 00:49:04;;;;;;;6.87;6.28;;;;;;;5.72;60.97;94472.03;1751219;82;21076;-54
2021/04/17 00:51:32;;;;;;;6.20;5.25;;;;;;;5.69;60.91;94480.48;1751648;82;21056;-54
2021/04/17 00:54:00;;;;;;;6.40;5.80;;;;;;;5.66;60.75;94487.38;1751290;82;21427;-53
2021/04/17 00:56:28;;;;;;;7.95;6.60;;;;;;;5.67;60.96;94486.19;1751298;81;21585;-53
2021/04/17 00:58:55;;;;;;;10.58;9.15;;;;;;;5.65;61.01;94487.98;1751321;82;21135;-54
2021/04/17 01:01:24;;;;;;;12.75;10.35;;;;;;;5.67;61.02;94486.19;1751359;82;21064;-54
2021/04/17 01:04:11;;;;;;;11.48;8.78;;;;;;;5.68;61.00;94489.87;1751359;82;21081;-54
2021/04/17 01:06:46;;;;;;;7.83;6.72;;;;;;;5.68;60.97;94485.77;1751297;82;21205;-54
2021/04/17 01:09:36;;;;;;;7.03;6.33;;;;;;;5.68;61.01;94487.72;1750884;81;21125;-53
2021/04/17 01:12:18;;;;;;;7.15;6.45;;;;;;;5.68;60.90;94484.99;1751292;81;21045;-54
2021/04/17 01:14:49;;;;;;;6.33;5.70;;;;;;;5.69;60.80;94489.26;1751359;82;21136;-53
2021/04/17 01:17:17;;;;;;;7.17;6.47;;;;;;;5.66;60.95;94492.83;1751363;82;21104;-53
2021/04/17 01:20:11;;;;;;;6.83;6.10;;;;;;;5.66;60.91;94492.25;1751412;82;21381;-55
2021/04/17 01:22:39;;;;;;;9.40;8.18;;;;;;;5.65;60.96;94496.75;1751390;82;21128;-53
2021/04/17 01:25:14;;;;;;;7.30;6.60;;;;;;;5.64;60.81;94494.61;1710346;82;21132;-53
2021/04/17 01:27:42;;;;;;;6.22;5.65;;;;;;;5.67;60.74;94493.01;1751297;82;21073;-54
2021/04/17 01:30:16;;;;;;;9.50;8.00;;;;;;;5.70;60.49;94490.80;1734655;82;21072;-53
2021/04/17 01:32:43;;;;;;;;;;;;;;;5.67;60.60;94488.91;1753595;81;22209;-52
2021/04/17 01:35:15;;;;;;;5.75;5.15;;;;;;;5.67;60.52;94491.06;1751271;81;20215;-55
2021/04/17 01:37:59;;;;;;;6.28;5.70;;;;;;;5.68;60.67;94491.81;1751319;82;21498;-54
2021/04/17 01:40:29;;;;;;;6.83;6.22;;;;;;;5.65;60.44;94492.08;1751327;81;21159;-53
2021/04/17 01:42:57;;;;;;;6.62;6.03;;;;;;;5.62;60.56;94492.14;1751322;81;21123;-53
2021/04/17 01:45:27;;;;;;;14.03;9.40;;;;;;;5.59;60.69;94481.47;1751296;82;21279;-55
2021/04/17 01:47:57;;;;;;;7.20;6.50;;;;;;;5.61;60.78;94480.45;1732459;82;21755;-54
2021/04/17 01:50:28;;;;;;;6.80;6.03;;;;;;;5.63;60.79;94480.03;1750702;81;21093;-54
2021/04/17 01:52:57;;;;;;;8.45;7.00;;;;;;;5.65;60.78;94479.80;1750574;82;21572;-53
2021/04/17 01:55:26;;;;;;;6.85;6.12;;;;;;;5.66;60.73;94473.73;1750513;82;21171;-53
2021/04/17 01:57:54;;;;;;;8.10;6.60;;;;;;;5.68;60.71;94480.90;1750507;82;21281;-54
2021/04/17 02:00:22;;;;;;;6.92;6.22;;;;;;;5.65;60.71;94479.02;1750480;82;21116;-53
2021/04/17 02:02:51;;;;;;;7.95;7.15;;;;;;;5.63;60.93;94478.06;1750572;82;21592;-54
2021/04/17 02:05:19;;;;;;;9.68;7.47;;;;;;;5.62;61.05;94483.34;1731431;82;21140;-53
2021/04/17 02:07:47;;;;;;;9.95;7.85;;;;;;;5.65;61.04;94489.93;1750446;82;21144;-54
2021/04/17 02:10:15;;;;;;;11.45;9.38;;;;;;;5.62;61.22;94483.96;1750435;81;21223;-54
2021/04/17 02:12:45;;;;;;;35.55;20.52;;;;;;;5.60;61.27;94499.38;1750403;81;21223;-53
2021/04/17 02:15:13;;;;;;;17.80;12.53;;;;;;;5.61;61.17;94492.72;1750427;82;21138;-54
2021/04/17 02:17:58;;;;;;;22.40;15.55;;;;;;;5.64;60.97;94495.22;1731616;82;21073;-55
2021/04/17 02:20:38;;;;;;;12.95;10.25;;;;;;;5.68;60.93;94494.55;1750522;82;21131;-54
2021/04/17 02:23:09;;;;;;;12.10;9.55;;;;;;;5.68;60.87;94491.23;1750032;81;21606;-54
2021/04/17 02:25:36;;;;;;;11.53;9.35;;;;;;;5.65;61.11;94491.30;1750465;81;21140;-53
2021/04/17 02:28:05;;;;;;;8.68;7.65;;;;;;;5.67;61.11;94493.01;1750456;82;21065;-52
2021/04/17 02:30:38;;;;;;;9.03;8.18;;;;;;;5.67;61.13;94492.42;1750484;81;21100;-53
2021/04/17 02:33:06;;;;;;;10.03;7.65;;;;;;;5.64;61.38;94498.70;1750668;82;21101;-53
2021/04/17 02:35:34;;;;;;;12.37;8.90;;;;;;;5.63;61.13;94493.68;1750641;81;21200;-54
2021/04/17 02:38:02;;;;;;;10.05;8.30;;;;;;;5.60;60.73;94498.01;1750473;82;21113;-53
2021/04/17 02:40:31;;;;;;;9.65;8.65;;;;;;;5.58;61.04;94499.64;1750643;82;21124;-54
2021/04/17 02:42:59;;;;;;;8.60;7.58;;;;;;;5.55;61.07;94496.36;1750597;82;21156;-54
2021/04/17 02:45:27;;;;;;;8.55;7.65;;;;;;;5.57;60.96;94488.55;1750629;81;21121;-53
2021/04/17 02:47:56;;;;;;;9.43;8.10;;;;;;;5.57;60.80;94494.02;1750463;82;21263;-54
2021/04/17 02:50:24;;;;;;;8.48;7.65;;;;;;;5.55;60.90;94486.81;1751385;81;21092;-53
2021/04/17 02:52:53;;;;;;;10.23;8.45;;;;;;;5.57;60.96;94492.65;1751382;81;21168;-53
2021/04/17 02:55:21;;;;;;;9.95;7.97;;;;;;;5.57;61.08;94487.19;1751419;81;21089;-53
2021/04/17 02:57:48;;;;;;;11.75;8.15;;;;;;;5.57;61.20;94487.19;1751425;82;21104;-54
2021/04/17 03:00:21;;;;;;;10.98;8.45;;;;;;;5.58;60.91;94489.48;1751328;82;21389;-54
2021/04/17 03:02:50;;;;;;;;;;;;;;;5.59;61.04;94487.53;1754075;81;21131;-55
2021/04/17 03:05:20;;;;;;;9.80;7.87;;;;;;;5.57;61.12;94485.22;1751408;82;20271;-53
2021/04/17 03:07:48;;;;;;;14.47;10.40;;;;;;;5.53;61.34;94485.11;1751429;82;21129;-53
2021/04/17 03:10:16;;;;;;;10.45;8.73;;;;;;;5.52;61.37;94491.17;1751398;81;21162;-53
2021/04/17 03:12:44;;;;;;;17.37;8.78;;;;;;;5.55;61.17;94486.81;1751394;81;21386;-54
2021/04/17 03:15:13;;;;;;;11.68;8.28;;;;;;;5.57;61.12;94489.30;1751348;82;21089;-53
2021/04/17 03:17:41;;;;;;;16.27;10.82;;;;;;;5.60;61.04;94487.70;1751431;82;21497;-54
2021/04/17 03:20:11;;;;;;;10.70;8.98;;;;;;;5.61;60.79;94487.88;1751397;81;21089;-54
2021/04/17 03:22:39;;;;;;;14.43;11.85;;;;;;;5.64;60.97;94489.77;1751407;82;21155;-57
2021/04/17 03:25:10;;;;;;;10.18;9.15;;;;;;;5.59;60.95;94489.66;1751368;82;21209;-54
2021/04/17 03:27:39;;;;;;;12.23;9.85;;;;;;;5.59;60.76;94492.99;1751311;82;21136;-55
2021/04/17 03:30:11;;;;;;;15.38;12.88;;;;;;;5.58;60.52;94491.45;1751337;82;21108;-54
2021/04/17 03:32:39;;;;;;;18.30;12.80;;;;;;;5.58;60.41;94490.09;1751730;82;21526;-54
2021/04/17 03:35:08;;;;;;;21.70;11.53;;;;;;;5.60;60.50;94499.98;1751391;82;21116;-53
2021/04/17 03:37:37;;;;;;;24.98;11.40;;;;;;;5.62;60.79;94509.88;1751337;81;21204;-54
2021/04/17 03:40:07;;;;;;;17.37;11.45;;;;;;;5.60;61.00;94508.17;1751347;81;21199;-54
2021/04/17 03:42:34;;;;;;;13.13;9.63;;;;;;;5.59;61.13;94512.09;1751469;82;21091;-53
2021/04/17 03:45:04;;;;;;;17.87;11.63;;;;;;;5.58;61.19;94510.55;1751374;81;21259;-53
2021/04/17 03:47:32;;;;;;;37.80;27.73;;;;;;;5.59;61.33;94510.73;1751357;82;21084;-55
2021/04/17 03:50:00;;;;;;;16.82;13.30;;;;;;;5.60;61.34;94513.02;1742697;82;22058;-53
2021/04/17 03:52:28;;;;;;;30.23;25.32;;;;;;;5.57;61.29;94504.92;1740154;82;21129;-54
2021/04/17 03:54:56;;;;;;;19.50;15.45;;;;;;;5.59;61.48;94514.81;1740220;82;21117;-55
2021/04/17 03:57:24;;;;;;;22.17;15.00;;;;;;;5.60;61.54;94516.36;1740194;82;21199;-54
2021/04/17 03:59:52;;;;;;;19.45;12.00;;;;;;;5.60;61.60;94517.72;1740234;82;21072;-55
2021/04/17 04:02:20;;;;;;;19.50;12.88;;;;;;;5.59;61.62;94517.55;1740195;82;21271;-54
2021/04/17 04:04:48;;;;;;;17.15;12.43;;;;;;;5.57;61.66;94517.20;1740213;82;21116;-53
2021/04/17 04:07:16;;;;;;;16.10;11.60;;;;;;;5.55;61.91;94518.97;1740204;81;21148;-54
2021/04/17 04:09:45;;;;;;;18.02;12.70;;;;;;;5.59;62.01;94516.18;1740144;82;21073;-54
2021/04/17 04:12:13;;;;;;;16.93;12.70;;;;;;;5.59;62.16;94512.84;1740230;82;21081;-56
2021/04/17 04:14:41;;;;;;;17.75;12.33;;;;;;;5.59;62.18;94517.55;1740241;81;21381;-54
2021/04/17 04:17:09;;;;;;;15.00;12.40;;;;;;;5.65;62.28;94526.77;1740139;82;21132;-53
2021/04/17 04:19:37;;;;;;;16.57;13.98;;;;;;;5.74;62.33;94526.95;1740206;82;21132;-55
2021/04/17 04:22:05;;;;;;;14.28;12.33;;;;;;;5.80;62.06;94523.95;1740166;82;21532;-54
2021/04/17 04:24:33;;;;;;;21.02;17.77;;;;;;;5.86;61.81;94523.63;1740271;82;21565;-53
2021/04/17 04:27:00;;;;;;;19.87;13.58;;;;;;;5.88;61.56;94530.22;1740184;81;21208;-54
2021/04/17 04:29:28;;;;;;;23.30;12.93;;;;;;;5.84;61.36;94532.25;1740130;82;21141;-52
2021/04/17 04:31:56;;;;;;;19.00;13.83;;;;;;;5.77;61.49;94531.59;1740185;82;21129;-54
2021/04/17 04:34:24;;;;;;;17.77;12.85;;;;;;;5.74;61.61;94533.20;1740179;82;21089;-55
2021/04/17 04:36:52;;;;;;;17.73;13.03;;;;;;;5.72;61.69;94537.53;1740131;82;21081;-56
2021/04/17 04:39:19;;;;;;;16.90;11.22;;;;;;;5.66;61.87;94533.77;1740291;82;22269;-54
2021/04/17 04:41:47;;;;;;;13.98;10.25;;;;;;;5.65;61.72;94536.32;1740165;82;21938;-54
2021/04/17 04:44:15;;;;;;;13.85;11.05;;;;;;;5.69;61.66;94533.70;1740173;82;21172;-53
2021/04/17 04:46:43;;;;;;;14.55;11.03;;;;;;;5.70;61.52;94536.61;1740200;82;21502;-53
2021/04/17 04:49:11;;;;;;;17.12;11.97;;;;;;;5.69;61.53;94534.28;1743036;81;21084;-53
2021/04/17 04:51:40;;;;;;;149.53;64.12;;;;;;;5.67;61.68;94536.09;1751337;82;21208;-54
2021/04/17 04:54:08;;;;;;;69.80;37.15;;;;;;;5.65;61.89;94538.47;1751234;81;21136;-54
2021/04/17 04:56:37;;;;;;;37.45;23.50;;;;;;;5.65;61.96;94540.41;1751264;81;21128;-55
2021/04/17 04:59:05;;;;;;;29.57;19.45;;;;;;;5.71;61.97;94546.91;1751241;82;21160;-54
2021/04/17 05:01:33;;;;;;;35.13;22.67;;;;;;;5.77;61.84;94541.16;1751223;82;21060;-54
2021/04/17 05:04:01;;;;;;;34.10;21.73;;;;;;;5.81;61.67;94539.14;1751316;82;22779;-55
2021/04/17 05:06:29;;;;;;;19.62;15.08;;;;;;;5.83;61.49;94539.48;1751204;81;21124;-54
2021/04/17 05:08:57;;;;;;;25.95;14.33;;;;;;;5.84;61.27;94538.30;1751252;82;21127;-56
2021/04/17 05:11:27;;;;;;;19.92;14.18;;;;;;;5.83;61.14;94539.48;1751152;81;21180;-55
2021/04/17 05:13:57;;;;;;;30.05;18.30;;;;;;;5.80;61.23;94544.43;1751286;81;21148;-54
2021/04/17 05:16:25;;;;;;;20.23;13.93;;;;;;;5.78;61.31;94541.33;1751223;81;21192;-55
2021/04/17 05:18:53;;;;;;;26.50;18.45;;;;;;;5.78;61.34;94546.78;1751225;82;21100;-54
2021/04/17 05:21:21;;;;;;;24.05;18.27;;;;;;;5.78;61.49;94548.15;1751255;82;21081;-54
2021/04/17 05:23:52;;;;;;;26.40;16.52;;;;;;;5.80;61.53;94551.25;1750563;81;21473;-55
2021/04/17 05:26:20;;;;;;;30.88;19.98;;;;;;;5.81;61.49;94548.70;1751285;82;21100;-55
2021/04/17 05:28:48;;;;;;;32.08;21.93;;;;;;;5.83;61.32;94549.05;1751198;81;21366;-54
2021/04/17 05:31:16;;;;;;;115.35;55.28;;;;;;;5.86;61.22;94550.92;1751160;82;21164;-56
2021/04/17 05:33:44;;;;;;;51.48;32.78;;;;;;;5.91;61.30;94553.94;1751262;82;21080;-54
2021/04/17 05:36:12;;;;;;;36.48;23.85;;;;;;;5.98;61.38;94551.66;1751258;82;21084;-54
2021/04/17 05:38:40;;;;;;;26.57;15.03;;;;;;;6.06;61.12;94554.39;1751229;82;21136;-55
2021/04/17 05:41:07;;;;;;;22.20;13.35;;;;;;;6.10;60.76;94547.67;1751259;82;21997;-54
2021/04/17 05:43:35;;;;;;;29.15;17.02;;;;;;;6.11;60.60;94546.48;1751155;82;21163;-54
2021/04/17 05:46:03;;;;;;;18.05;14.70;;;;;;;6.12;60.39;94549.99;1751253;82;21072;-53
2021/04/17 05:48:31;;;;;;;18.98;12.23;;;;;;;6.15;60.55;94554.61;1751218;82;21088;-54
2021/04/17 05:51:00;;;;;;;15.93;12.30;;;;;;;6.17;60.38;94558.44;1751102;82;21061;-54
2021/04/17 05:53:28;;;;;;;18.42;12.75;;;;;;;6.17;60.31;94563.14;1751325;81;22239;-54
2021/04/17 05:55:56;;;;;;;14.60;11.35;;;;;;;6.18;60.36;94563.31;1751115;82;21187;-55
2021/04/17 05:58:24;;;;;;;17.23;10.72;;;;;;;6.24;60.13;94553.42;1751210;82;21132;-57
2021/04/17 06:00:52;;;;;;;17.35;12.40;;;;;;;6.29;59.93;94561.10;1751189;82;21108;-54
2021/04/17 06:03:20;;;;;;;18.98;13.65;;;;;;;6.29;60.09;94562.47;1751239;82;21089;-55
2021/04/17 06:05:48;;;;;;;27.20;18.00;;;;;;;6.31;60.16;94564.20;1751246;82;21211;-54
2021/04/17 06:08:18;;;;;;;25.70;17.52;;;;;;;6.35;60.10;94562.16;1751176;82;21215;-56
2021/04/17 06:10:47;;;;;;;18.50;14.80;;;;;;;6.42;60.05;94553.79;1751316;82;21156;-58
2021/04/17 06:13:15;;;;;;;17.75;13.65;;;;;;;6.47;59.78;94561.47;1751414;82;21171;-56
2021/04/17 06:15:44;;;;;;;23.98;14.28;;;;;;;6.48;59.76;94561.67;1751440;81;21056;-55
2021/04/17 06:18:13;;;;;;;19.57;14.83;;;;;;;6.48;59.57;94563.04;1751393;82;21158;-57
2021/04/17 06:20:43;;;;;;;18.80;13.55;;;;;;;6.52;59.68;94563.72;1751438;81;21104;-55
2021/04/17 06:23:10;;;;;;;17.80;13.55;;;;;;;6.56;59.52;94562.42;1751359;82;21092;-56
2021/04/17 06:25:38;;;;;;;21.30;13.90;;;;;;;6.61;59.40;94559.20;1751350;82;21136;-57
2021/04/17 06:28:07;;;;;;;15.85;12.33;;;;;;;6.67;59.49;94564.33;1751340;82;21139;-53
2021/04/17 06:30:34;;;;;;;20.30;13.88;;;;;;;6.75;59.33;94568.45;1751393;82;21358;-55
2021/04/17 06:33:02;;;;;;;27.10;13.98;;;;;;;6.83;58.89;94565.70;1751305;81;21116;-58
2021/04/17 06:35:30;;;;;;;23.62;15.65;;;;;;;6.85;58.90;94567.41;1751319;82;21072;-57
2021/04/17 06:37:58;;;;;;;39.23;24.57;;;;;;;6.89;58.77;94564.59;1751306;82;21163;-57
2021/04/17 06:40:26;;;;;;;29.12;18.27;;;;;;;6.96;58.83;94567.14;1751478;82;21576;-57
2021/04/17 06:42:54;;;;;;;22.45;17.10;;;;;;;7.04;58.45;94574.00;1751352;81;21347;-55
2021/04/17 06:45:24;;;;;;;21.35;15.30;;;;;;;7.06;58.02;94568.86;1751306;81;21100;-54
2021/04/17 06:47:54;;;;;;;19.30;13.28;;;;;;;7.03;57.89;94568.36;1751360;81;21072;-56
2021/04/17 06:50:23;;;;;;;16.90;13.08;;;;;;;7.02;57.65;94566.20;1751201;81;21153;-57
2021/04/17 06:52:51;;;;;;;19.75;15.05;;;;;;;7.05;57.64;94568.69;1751490;81;21521;-57
2021/04/17 06:55:20;;;;;;;19.92;12.25;;;;;;;7.10;57.39;94571.07;1751499;82;22094;-55
2021/04/17 06:57:48;;;;;;;17.92;12.30;;;;;;;7.17;57.16;94568.77;1751340;82;21128;-57
2021/04/17 07:00:19;;;;;;;19.42;12.98;;;;;;;7.23;57.05;94573.87;1751348;81;21164;-54
2021/04/17 07:02:47;;;;;;;24.35;11.80;;;;;;;7.32;56.66;94565.84;1751420;82;21591;-58
2021/04/17 07:05:16;;;;;;;44.53;22.35;;;;;;;7.39;56.32;94569.75;1751322;82;21073;-57
2021/04/17 07:07:44;;;;;;;23.80;12.30;;;;;;;7.42;56.35;94558.72;1751337;81;21204;-56
2021/04/17 07:10:14;;;;;;;17.80;13.03;;;;;;;7.52;55.96;94561.76;1751291;81;21513;-57
2021/04/17 07:15:20;;;;;;;21.85;12.53;;;;;;;7.76;55.52;94565.81;1889919;75;22354;-58
2021/04/17 07:17:48;;;;;;;21.25;11.95;;;;;;;7.76;55.67;94562.29;1860891;77;21037;-57
2021/04/17 07:20:17;;;;;;;30.57;13.83;;;;;;;7.77;55.45;94568.72;1860915;77;21366;-57
2021/04/17 07:22:45;;;;;;;22.93;13.53;;;;;;;7.76;55.30;94571.29;1860928;77;20993;-58
2021/04/17 07:25:17;;;;;;;21.97;12.43;;;;;;;7.78;55.46;94571.63;1860954;77;21490;-55
2021/04/17 07:27:52;;;;;;;15.45;11.00;;;;;;;7.84;55.59;94573.98;1860932;77;21147;-58
2021/04/17 07:30:27;;;;;;;24.07;15.75;;;;;;;7.98;55.23;94570.86;1860933;77;20986;-58
2021/04/17 07:33:16;;;;;;;20.65;14.07;;;;;;;8.01;54.77;94568.61;1860774;77;21180;-55
2021/04/17 07:35:46;;;;;;;19.57;13.10;;;;;;;8.06;54.70;94576.29;1860592;77;21215;-56
2021/04/17 07:38:21;;;;;;;24.18;12.70;;;;;;;8.09;54.61;94571.30;1842201;77;21628;-58
2021/04/17 07:41:07;;;;;;;21.15;12.95;;;;;;;8.11;54.71;94579.85;1827197;78;21067;-56
2021/04/17 07:44:02;;;;;;;23.60;12.55;;;;;;;8.15;54.34;94579.17;1827185;78;21127;-55
2021/04/17 07:46:34;;;;;;;22.87;13.03;;;;;;;8.22;54.14;94583.09;1827085;78;21523;-56
2021/04/17 07:49:18;;;;;;;14.53;11.20;;;;;;;8.28;53.89;94571.75;1826516;78;21164;-57
2021/04/17 07:52:11;;;;;;;13.08;9.28;;;;;;;8.36;53.43;94577.80;1827062;78;21076;-55
2021/04/17 07:55:02;;;;;;;28.50;12.55;;;;;;;8.37;53.26;94574.63;1825741;78;21088;-55
2021/04/17 07:57:32;;;;;;;16.25;11.83;;;;;;;8.41;53.52;94580.02;1805127;78;21166;-56
2021/04/17 08:00:00;;;;;;;26.60;11.53;;;;;;;8.45;53.39;94578.69;1797662;79;21382;-54
2021/04/17 08:02:28;;;;;;;18.32;11.22;;;;;;;8.43;53.37;94576.98;1797488;79;21178;-54
2021/04/17 08:04:56;;;;;;;13.58;10.05;;;;;;;8.50;53.51;94583.64;1797755;79;21547;-56
2021/04/17 08:07:24;;;;;;;15.60;10.45;;;;;;;8.59;52.71;94572.78;1797463;79;21541;-55
2021/04/17 08:09:55;;;;;;;18.23;11.22;;;;;;;8.70;52.37;94575.97;1797701;79;21587;-55
2021/04/17 08:12:23;;;;;;;27.85;9.78;;;;;;;8.85;52.33;94575.70;1797700;79;21523;-55
2021/04/17 08:14:53;;;;;;;22.98;13.72;;;;;;;8.99;51.97;94571.89;1797250;79;21195;-54
2021/04/17 08:17:21;;;;;;;28.75;10.75;;;;;;;9.04;51.30;94569.95;1798033;79;21091;-58
2021/04/17 08:19:56;;;;;;;17.10;9.33;;;;;;;9.08;51.32;94568.48;1798204;79;21083;-58
2021/04/17 08:22:21;;;;;;;26.45;10.63;;;;;;;9.21;51.15;94568.62;1797687;79;21092;-57
2021/04/17 08:24:50;;;;;;;16.30;9.80;;;;;;;9.32;50.89;94566.30;1769927;79;21463;-55
2021/04/17 08:27:17;;;;;;;16.77;9.75;;;;;;;9.43;50.96;94564.56;1797604;79;21149;-54
2021/04/17 08:29:50;;;;;;;31.20;9.80;;;;;;;9.57;50.30;94566.22;1769532;79;21131;-54
2021/04/17 08:32:42;;;;;;;57.50;10.40;;;;;;;9.65;50.34;94563.99;1797827;79;21175;-58
2021/04/17 08:35:19;;;;;;;13.30;8.80;;;;;;;9.75;49.84;94565.59;1797998;79;21359;-55
2021/04/17 08:37:56;;;;;;;14.45;9.40;;;;;;;9.88;49.43;94561.59;1797886;79;21205;-55
2021/04/17 08:40:39;;;;;;;17.85;9.33;;;;;;;10.02;49.20;94559.72;1797832;79;21127;-58
2021/04/17 08:43:19;;;;;;;18.98;10.00;;;;;;;10.17;48.90;94563.48;1798011;79;21509;-57
2021/04/17 08:46:13;;;;;;;18.48;11.03;;;;;;;10.32;48.06;94553.50;1797838;79;21088;-55
2021/04/17 08:48:56;;;;;;;24.07;11.35;;;;;;;10.41;48.29;94554.17;1797962;79;21210;-54
2021/04/17 08:51:39;;;;;;;20.92;11.22;;;;;;;10.51;47.80;94557.89;1797364;79;21379;-55
2021/04/17 08:54:10;;;;;;;;;;;;;;;10.60;47.80;94560.70;1800448;79;21072;-57
2021/04/17 08:56:53;;;;;;;13.08;9.08;;;;;;;10.71;47.63;94554.78;1798009;79;20506;-55
2021/04/17 08:59:32;;;;;;;14.18;9.53;;;;;;;10.81;47.15;94555.11;1797683;79;21214;-54
2021/04/17 09:02:12;;;;;;;18.65;11.50;;;;;;;10.96;47.18;94555.34;1797870;79;21093;-55
2021/04/17 09:05:12;;;;;;;11.57;8.93;;;;;;;11.10;47.05;94555.53;1797738;79;21193;-56
2021/04/17 09:07:46;;;;;;;12.80;7.35;;;;;;;11.14;46.66;94543.76;1797767;79;21161;-55
2021/04/17 09:10:33;;;;;;;20.15;7.15;;;;;;;11.23;46.22;94545.17;1797873;79;21136;-57
2021/04/17 09:13:18;;;;;;;7.78;6.87;;;;;;;11.46;46.62;94541.06;1797920;79;21103;-56
2021/04/17 09:15:57;;;;;;;6.80;5.80;;;;;;;11.69;46.76;94534.38;1797326;79;21133;-55
2021/04/17 09:18:38;;;;;;;15.38;7.42;;;;;;;11.93;45.07;94538.04;1797380;79;21355;-55
2021/04/17 09:21:21;;;;;;;11.15;6.92;;;;;;;12.01;44.34;94529.63;1797348;79;21512;-57
2021/04/17 09:23:53;;;;;;;6.45;5.85;;;;;;;11.98;44.10;94535.28;1797369;79;21067;-57
2021/04/17 09:26:35;;;;;;;10.05;5.37;;;;;;;12.02;44.56;94532.53;1797328;79;21504;-59
2021/04/17 09:29:19;;;;;;;8.75;5.00;;;;;;;12.11;43.48;94531.76;1797375;78;21170;-59
2021/04/17 09:31:50;;;;;;;13.00;6.08;;;;;;;12.16;43.95;94533.29;1793760;78;21356;-58
2021/04/17 09:34:19;;;;;;;7.62;5.75;;;;;;;12.24;43.24;94531.73;1826547;78;21476;-58
2021/04/17 09:36:50;;;;;;;14.90;7.37;;;;;;;12.28;43.24;94518.54;1826339;78;21067;-56
2021/04/17 09:39:30;;;;;;;15.88;7.55;;;;;;;12.36;42.81;94519.77;1826379;78;21059;-58
2021/04/17 09:42:03;;;;;;;12.05;6.58;;;;;;;12.42;42.97;94528.94;1826440;78;21050;-57
2021/04/17 09:44:49;;;;;;;13.78;7.87;;;;;;;12.56;42.50;94525.53;1826746;78;21186;-59
2021/04/17 09:47:19;;;;;;;8.33;6.53;;;;;;;12.60;41.95;94520.60;1826391;78;21044;-59
2021/04/17 09:49:49;;;;;;;23.07;6.37;;;;;;;12.59;42.43;94524.59;1826465;78;21062;-58
2021/04/17 09:52:20;;;;;;;6.60;5.17;;;;;;;12.65;42.29;94522.13;1826565;78;21495;-57
2021/04/17 09:55:04;;;;;;;6.17;5.58;;;;;;;12.72;42.39;94521.03;1826565;78;21074;-57
2021/04/17 09:57:32;;;;;;;5.83;4.95;;;;;;;12.79;41.70;94520.69;1826402;78;22419;-57
2021/04/17 10:00:02;;;;;;;8.40;6.37;;;;;;;12.84;41.53;94513.14;1826423;78;21051;-58
2021/04/17 10:02:47;;;;;;;8.08;5.80;;;;;;;12.86;41.92;94514.21;1826544;78;21475;-57
2021/04/17 10:05:23;;;;;;;12.10;5.55;;;;;;;12.90;41.74;94515.43;1826538;78;21526;-54
2021/04/17 10:07:54;;;;;;;15.35;6.47;;;;;;;12.84;41.96;94517.28;1766430;80;21107;-57
2021/04/17 10:10:20;;;;;;;14.95;5.42;;;;;;;12.79;41.71;94519.30;1771297;81;22368;-56
2021/04/17 10:12:54;;;;;;;6.03;5.42;;;;;;;12.79;41.61;94519.30;1771175;81;20956;-56
2021/04/17 10:15:27;;;;;;;5.87;4.92;;;;;;;12.76;41.39;94516.10;1770073;80;21126;-58
2021/04/17 10:18:00;;;;;;;6.12;5.17;;;;;;;12.80;41.50;94515.31;1758772;81;21137;-56
2021/04/17 10:20:28;;;;;;;18.30;6.30;;;;;;;12.90;41.35;94515.43;1789981;79;21070;-56
2021/04/17 10:22:59;;;;;;;6.45;5.10;;;;;;;13.06;41.83;94511.69;1789983;80;21200;-55
2021/04/17 10:25:41;;;;;;;7.20;4.78;;;;;;;13.26;42.29;94505.60;1789865;80;21084;-55
2021/04/17 10:28:17;;;;;;;8.03;5.72;;;;;;;13.50;41.29;94509.90;1790114;80;21540;-58
2021/04/17 10:31:08;;;;;;;6.45;5.30;;;;;;;13.59;40.57;94520.13;1790011;80;21155;-56
2021/04/17 10:33:43;;;;;;;11.18;6.37;;;;;;;13.59;41.62;94515.98;1682274;85;21189;-56
2021/04/17 10:36:20;;;;;;;14.50;9.15;;;;;;;13.61;40.86;94512.87;1749547;80;21207;-57
2021/04/17 10:38:50;;;;;;;9.25;5.78;;;;;;;13.65;40.52;94516.22;1771128;81;21107;-56
2021/04/17 10:41:28;;;;;;;8.43;7.00;;;;;;;13.50;40.06;94512.66;1771204;81;21052;-56
2021/04/17 10:44:14;;;;;;;17.85;6.50;;;;;;;13.40;40.77;94511.78;1764534;81;21150;-58
2021/04/17 10:46:46;;;;;;;13.30;6.90;;;;;;;13.41;40.63;94509.20;1787262;80;21913;-58
2021/04/17 10:49:32;;;;;;;8.88;5.55;;;;;;;13.41;41.24;94502.29;1787673;80;21199;-58
2021/04/17 10:52:30;;;;;;;11.97;5.83;;;;;;;13.44;41.91;94497.20;1748947;81;21154;-59
2021/04/17 10:55:01;;;;;;;7.55;5.22;;;;;;;13.37;40.69;94502.45;1762877;81;21530;-56
2021/04/17 10:57:45;;;;;;;7.15;6.15;;;;;;;13.25;40.49;94498.55;1762829;81;21118;-57
2021/04/17 11:00:15;;;;;;;12.43;6.15;;;;;;;13.11;40.44;94499.98;1762906;81;21194;-59
2021/04/17 11:02:43;;;;;;;10.20;6.50;;;;;;;13.08;40.63;94498.80;1733268;81;22264;-55
2021/04/17 11:05:14;;;;;;;7.33;5.33;;;;;;;13.13;41.60;94500.91;1686019;81;21102;-56
2021/04/17 11:07:42;;;;;;;8.30;5.65;;;;;;;13.34;42.57;94502.02;1762780;81;21099;-56
2021/04/17 11:10:12;;;;;;;6.42;5.72;;;;;;;13.63;42.12;94505.50;1762815;81;21091;-56
2021/04/17 11:12:40;;;;;;;7.62;5.10;;;;;;;13.90;42.03;94502.50;1762801;81;21487;-56
2021/04/17 11:15:24;;;;;;;5.75;5.15;;;;;;;14.19;40.42;94505.36;1760555;81;21201;-57
2021/04/17 11:18:15;;;;;;;6.05;5.28;;;;;;;14.58;40.85;94500.01;1755891;81;21088;-59
2021/04/17 11:20:53;;;;;;;7.30;4.83;;;;;;;15.38;41.84;94508.55;1667792;85;21214;-59
2021/04/17 11:23:52;;;;;;;5.10;4.55;;;;;;;16.00;40.12;94504.69;1737778;81;21200;-56
2021/04/17 11:26:27;;;;;;;7.50;5.33;;;;;;;16.50;37.38;94503.20;1769141;81;21173;-57
2021/04/17 11:28:58;;;;;;;7.25;5.65;;;;;;;16.76;36.85;94506.73;1768612;81;22777;-56
2021/04/17 11:31:29;;;;;;;8.55;5.15;;;;;;;16.87;35.51;94499.89;1769054;79;21583;-58
2021/04/17 11:33:59;;;;;;;4.90;4.03;;;;;;;17.15;36.45;94498.84;1768753;81;21107;-59
2021/04/17 11:36:30;;;;;;;6.97;4.10;;;;;;;17.68;37.29;94496.77;1768763;81;21139;-58
2021/04/17 11:38:58;;;;;;;5.85;4.95;;;;;;;18.33;35.24;94491.47;1768730;81;21095;-57
2021/04/17 11:41:26;;;;;;;6.67;3.72;;;;;;;19.14;35.09;94491.25;1768793;81;21398;-54
2021/04/17 11:43:56;;;;;;;7.20;3.98;;;;;;;19.61;32.84;94495.16;1768930;81;21122;-55
2021/04/17 11:46:24;;;;;;;6.97;3.42;;;;;;;19.62;31.78;94496.68;1768754;81;21099;-56
2021/04/17 11:48:54;;;;;;;4.35;3.62;;;;;;;19.35;31.44;94493.30;1768769;81;21166;-56
2021/04/17 11:51:22;;;;;;;4.25;3.50;;;;;;;18.98;32.99;94489.26;1769066;81;21083;-56
2021/04/17 11:53:51;;;;;;;7.37;4.62;;;;;;;18.72;32.93;94485.94;1768681;81;21086;-55
2021/04/17 11:56:19;;;;;;;6.50;3.90;;;;;;;18.43;33.15;94481.60;1768918;81;21172;-56